Time;durP1;ratioP1;P1;durP2;ratioP2;P2;SDS_P1;SDS_P2;PMS_P1;PMS_P2;Temp;Humidity;BMP_temperature;BMP_pressure;BME280_temperature;BME280_humidity;BME280_pressure;Samples;Min_cycle;Max_cycle;Signal;HPM_P1;HPM_P2
2023/10/31 00:00:39;;;;;;;6.43;3.97;;;11.20;99.90;;;;;;5060980;28;36964;-77
2023/10/31 00:03:05;;;;;;;9.82;4.68;;;11.20;99.90;;;;;;5054914;28;37531;-76
2023/10/31 00:05:31;;;;;;;9.73;4.65;;;11.20;99.90;;;;;;5065254;28;39384;-78
2023/10/31 00:07:57;;;;;;;13.75;5.88;;;11.30;99.90;;;;;;5062698;28;38154;-78
2023/10/31 00:10:23;;;;;;;11.43;5.53;;;11.30;99.90;;;;;;5060054;28;37410;-76
2023/10/31 00:12:50;;;;;;;10.30;5.25;;;11.30;99.90;;;;;;5061019;28;38413;-76
2023/10/31 00:15:16;;;;;;;9.75;4.53;;;11.30;99.90;;;;;;5061343;28;39434;-76
2023/10/31 00:17:42;;;;;;;9.32;4.20;;;11.30;99.90;;;;;;5057032;28;37361;-78
2023/10/31 00:20:08;;;;;;;7.78;4.35;;;11.30;99.90;;;;;;5065313;28;38210;-77
2023/10/31 00:22:34;;;;;;;12.48;4.38;;;11.30;99.90;;;;;;5060243;28;37501;-77
2023/10/31 00:25:00;;;;;;;10.77;4.18;;;11.30;99.90;;;;;;5055656;28;39544;-76
2023/10/31 00:27:26;;;;;;;9.38;4.55;;;11.30;99.90;;;;;;5071677;28;37430;-77
2023/10/31 00:29:52;;;;;;;10.40;4.47;;;11.30;99.90;;;;;;5062673;28;36886;-77
2023/10/31 00:32:18;;;;;;;7.50;4.05;;;11.30;99.90;;;;;;5059154;28;38979;-76
2023/10/31 00:34:45;;;;;;;9.43;3.95;;;11.30;99.90;;;;;;5064463;28;39610;-76
2023/10/31 00:37:11;;;;;;;16.20;4.57;;;11.30;99.90;;;;;;5062597;28;38172;-77
2023/10/31 00:39:37;;;;;;;14.98;5.50;;;11.30;99.90;;;;;;5064665;28;36778;-77
2023/10/31 00:42:03;;;;;;;8.20;4.93;;;11.40;99.90;;;;;;5056587;28;38433;-77
2023/10/31 00:44:29;;;;;;;10.90;4.80;;;11.40;99.90;;;;;;5053532;28;38498;-77
2023/10/31 00:46:55;;;;;;;13.50;5.78;;;11.40;99.90;;;;;;5057470;28;39078;-77
2023/10/31 00:49:21;;;;;;;12.10;5.45;;;11.40;99.90;;;;;;5062770;28;37142;-77
2023/10/31 00:51:47;;;;;;;14.13;6.93;;;11.40;99.90;;;;;;5062031;28;38942;-77
2023/10/31 00:54:14;;;;;;;15.40;6.05;;;11.40;99.90;;;;;;5065071;28;37852;-77
2023/10/31 00:56:40;;;;;;;9.52;4.85;;;11.40;99.90;;;;;;5063565;28;39739;-78
2023/10/31 00:59:06;;;;;;;12.23;5.55;;;11.40;99.90;;;;;;5061899;28;36817;-76
2023/10/31 01:01:32;;;;;;;12.43;5.97;;;11.40;99.90;;;;;;5057092;28;39599;-77
2023/10/31 01:03:58;;;;;;;7.50;5.15;;;11.40;99.90;;;;;;5078390;28;37997;-77
2023/10/31 01:06:24;;;;;;;10.43;5.28;;;11.50;99.90;;;;;;5062495;28;39533;-77
2023/10/31 01:08:50;;;;;;;7.72;4.28;;;11.50;99.90;;;;;;5056053;28;38013;-77
2023/10/31 01:11:16;;;;;;;14.27;4.65;;;11.50;99.90;;;;;;5042157;28;39720;-77
2023/10/31 01:13:42;;;;;;;8.45;4.22;;;11.50;99.90;;;;;;5058852;28;38682;-77
2023/10/31 01:16:08;;;;;;;13.10;4.28;;;11.50;99.90;;;;;;5059924;28;38368;-78
2023/10/31 01:18:34;;;;;;;9.52;3.63;;;11.50;99.90;;;;;;5063256;28;37100;-77
2023/10/31 01:21:01;;;;;;;6.57;3.00;;;11.50;99.90;;;;;;5073801;28;38709;-77
2023/10/31 01:23:27;;;;;;;5.05;2.95;;;11.50;99.90;;;;;;5057747;28;47315;-78
2023/10/31 01:25:53;;;;;;;4.82;2.22;;;11.50;99.90;;;;;;5059557;28;38284;-79
2023/10/31 01:28:19;;;;;;;6.18;1.55;;;11.40;99.90;;;;;;5053328;28;36469;-77
2023/10/31 01:30:45;;;;;;;7.22;1.60;;;11.40;99.90;;;;;;5072835;28;41105;-77
2023/10/31 01:33:11;;;;;;;3.03;0.88;;;11.40;99.90;;;;;;5064883;28;37527;-77
2023/10/31 01:35:37;;;;;;;2.93;1.00;;;11.30;99.90;;;;;;5061977;28;38812;-77
2023/10/31 01:38:03;;;;;;;4.68;0.70;;;11.30;99.90;;;;;;5067149;28;38839;-77
2023/10/31 01:40:29;;;;;;;1.98;0.60;;;11.30;99.90;;;;;;5062219;28;37719;-77
2023/10/31 01:42:56;;;;;;;4.15;0.65;;;11.20;99.90;;;;;;5056591;28;39555;-77
2023/10/31 01:45:22;;;;;;;2.95;0.60;;;11.20;99.90;;;;;;5064668;28;38770;-78
2023/10/31 01:47:49;;;;;;;4.97;1.15;;;11.20;99.90;;;;;;5066271;28;37580;-77
2023/10/31 01:50:17;;;;;;;3.40;0.70;;;11.20;99.90;;;;;;5062442;28;39858;-77
2023/10/31 01:52:44;;;;;;;5.47;0.98;;;11.10;99.90;;;;;;5064278;28;38133;-77
2023/10/31 01:55:11;;;;;;;1.55;0.50;;;11.10;99.90;;;;;;5070390;27;38317;-77
2023/10/31 01:57:37;;;;;;;1.58;0.45;;;11.00;99.90;;;;;;5075375;28;35924;-77
2023/10/31 02:00:05;;;;;;;4.70;0.60;;;11.10;99.90;;;;;;5064499;28;37355;-78
2023/10/31 02:02:34;;;;;;;6.03;0.77;;;11.10;99.90;;;;;;5420407;22;38611;-77
2023/10/31 02:05:00;;;;;;;3.17;0.83;;;11.10;99.90;;;;;;5053044;28;38295;-77
2023/10/31 02:07:26;;;;;;;3.05;0.70;;;11.00;99.90;;;;;;5057366;28;36109;-77
2023/10/31 02:09:53;;;;;;;2.53;0.73;;;11.10;99.90;;;;;;5061032;28;38860;-77
2023/10/31 02:12:35;;;;;;;2.67;0.50;;;11.10;99.90;;;;;;5061576;28;39823;-77
2023/10/31 02:15:02;;;;;;;2.53;0.50;;;11.10;99.90;;;;;;5057742;28;37313;-78
2023/10/31 02:17:29;;;;;;;1.93;0.40;;;11.10;99.90;;;;;;5060865;28;47922;-77
2023/10/31 02:19:55;;;;;;;3.17;0.53;;;11.10;99.90;;;;;;5057039;28;39430;-77
2023/10/31 02:22:24;;;;;;;3.58;0.75;;;11.00;99.90;;;;;;5055627;28;37745;-77
2023/10/31 02:24:50;;;;;;;1.58;0.60;;;11.00;99.90;;;;;;5078083;28;38354;-77
2023/10/31 02:27:16;;;;;;;6.93;1.03;;;11.10;99.90;;;;;;5060371;28;35800;-77
2023/10/31 02:29:42;;;;;;;3.28;0.50;;;11.10;99.90;;;;;;5063998;28;38626;-77
2023/10/31 02:32:08;;;;;;;6.93;0.77;;;11.10;99.90;;;;;;5064078;28;38782;-77
2023/10/31 02:34:35;;;;;;;3.43;0.60;;;11.10;99.90;;;;;;5058769;28;37483;-77
2023/10/31 02:37:01;;;;;;;3.05;0.82;;;11.10;99.90;;;;;;5063652;28;35870;-77
2023/10/31 02:39:27;;;;;;;6.05;1.20;;;11.10;99.90;;;;;;5063032;28;47276;-77
2023/10/31 02:41:53;;;;;;;6.03;1.23;;;11.20;99.90;;;;;;5063277;28;35844;-77
2023/10/31 02:44:19;;;;;;;5.30;0.93;;;11.20;99.90;;;;;;5059415;28;35337;-77
2023/10/31 02:46:45;;;;;;;3.80;0.70;;;11.20;99.90;;;;;;5056721;28;36752;-78
2023/10/31 02:49:11;;;;;;;3.47;0.73;;;11.30;99.90;;;;;;5058013;28;37493;-77
2023/10/31 02:51:37;;;;;;;2.80;0.50;;;11.20;99.90;;;;;;5062079;28;37814;-78
2023/10/31 02:54:04;;;;;;;3.22;0.40;;;11.20;99.90;;;;;;5062061;28;37163;-77
2023/10/31 02:56:30;;;;;;;2.00;0.45;;;11.10;99.90;;;;;;5062123;28;36323;-77
2023/10/31 02:58:56;;;;;;;2.85;0.38;;;11.10;99.90;;;;;;5062362;28;38543;-77
2023/10/31 03:01:22;;;;;;;4.30;0.40;;;11.00;99.90;;;;;;5061327;28;38586;-78
2023/10/31 03:03:48;;;;;;;1.70;0.20;;;10.90;99.90;;;;;;5051265;28;37585;-78
2023/10/31 03:06:14;;;;;;;6.30;0.50;;;10.90;99.90;;;;;;5064797;28;35895;-77
2023/10/31 03:08:40;;;;;;;0.98;0.35;;;10.80;99.90;;;;;;5059066;28;40500;-78
2023/10/31 03:11:06;;;;;;;1.40;0.30;;;10.70;99.90;;;;;;5058498;28;37753;-77
2023/10/31 03:13:32;;;;;;;1.23;0.38;;;10.70;99.90;;;;;;5060242;28;37259;-78
2023/10/31 03:15:58;;;;;;;2.17;0.33;;;10.70;99.90;;;;;;5062264;28;36892;-78
2023/10/31 03:18:24;;;;;;;0.82;0.38;;;10.60;99.90;;;;;;5053172;28;37903;-77
2023/10/31 03:20:50;;;;;;;2.33;0.33;;;10.60;99.90;;;;;;5061513;28;38492;-77
2023/10/31 03:23:17;;;;;;;1.45;0.30;;;10.60;99.90;;;;;;5055315;28;37563;-77
2023/10/31 03:25:43;;;;;;;0.67;0.20;;;10.60;99.90;;;;;;5061064;28;36357;-77
2023/10/31 03:28:19;;;;;;;1.83;0.43;;;10.60;99.90;;;;;;5061916;28;39673;-77
2023/10/31 03:30:48;;;;;;;3.70;0.45;;;10.60;99.90;;;;;;5065528;28;38791;-78
2023/10/31 03:33:16;;;;;;;1.87;0.50;;;10.70;99.90;;;;;;5059330;28;38852;-78
2023/10/31 03:35:43;;;;;;;3.80;0.55;;;10.70;99.90;;;;;;5066863;28;37301;-77
2023/10/31 03:38:09;;;;;;;6.07;0.50;;;10.70;99.90;;;;;;5064582;28;38783;-78
2023/10/31 03:40:36;;;;;;;2.97;0.43;;;10.70;99.90;;;;;;5061153;28;37675;-78
2023/10/31 03:43:02;;;;;;;3.83;0.40;;;10.70;99.90;;;;;;5055220;28;38119;-77
2023/10/31 03:45:28;;;;;;;2.65;0.40;;;10.70;99.90;;;;;;5062840;28;36249;-78
2023/10/31 03:47:54;;;;;;;3.73;0.40;;;10.70;99.90;;;;;;5060090;28;37666;-78
2023/10/31 03:50:21;;;;;;;1.55;0.35;;;10.70;99.90;;;;;;5058853;28;37695;-78
2023/10/31 03:52:47;;;;;;;4.78;0.60;;;10.70;99.90;;;;;;5057327;28;39238;-77
2023/10/31 03:55:13;;;;;;;4.22;0.47;;;10.70;99.90;;;;;;5055191;28;37506;-77
2023/10/31 03:57:39;;;;;;;3.03;0.50;;;10.70;99.90;;;;;;5055522;28;38902;-77
2023/10/31 04:00:07;;;;;;;5.30;0.47;;;10.80;99.90;;;;;;5057142;28;37042;-77
2023/10/31 04:02:33;;;;;;;3.60;0.50;;;10.70;99.90;;;;;;5058288;28;37684;-77
2023/10/31 04:04:59;;;;;;;5.22;0.82;;;10.80;99.90;;;;;;5064370;28;37377;-78
2023/10/31 04:07:25;;;;;;;4.55;0.60;;;10.80;99.90;;;;;;5055828;28;39067;-77
2023/10/31 04:09:51;;;;;;;3.80;0.55;;;10.80;99.90;;;;;;5056357;28;38543;-77
2023/10/31 04:12:17;;;;;;;4.30;0.43;;;10.80;99.90;;;;;;5057474;28;37430;-78
2023/10/31 04:14:43;;;;;;;4.68;0.70;;;10.80;99.90;;;;;;5055600;28;37385;-78
2023/10/31 04:17:10;;;;;;;4.15;0.50;;;10.90;99.90;;;;;;5063923;28;38859;-78
2023/10/31 04:19:37;;;;;;;5.20;0.90;;;10.90;99.90;;;;;;5053597;28;37885;-77
2023/10/31 04:22:03;;;;;;;2.90;0.50;;;10.90;99.90;;;;;;5066403;28;38291;-76
2023/10/31 04:24:29;;;;;;;8.73;1.23;;;10.90;99.90;;;;;;5058679;28;37864;-76
2023/10/31 04:26:55;;;;;;;7.75;0.90;;;10.90;99.90;;;;;;5051775;28;37951;-76
2023/10/31 04:29:21;;;;;;;6.63;0.80;;;10.80;99.90;;;;;;5061556;28;38742;-77
2023/10/31 04:31:47;;;;;;;6.30;0.70;;;10.80;99.90;;;;;;5063869;28;38539;-77
2023/10/31 04:34:14;;;;;;;2.78;0.50;;;10.80;99.90;;;;;;5057178;28;36620;-77
2023/10/31 04:36:40;;;;;;;4.45;0.60;;;10.90;99.90;;;;;;5062504;28;38933;-77
2023/10/31 04:39:06;;;;;;;2.53;0.50;;;10.80;99.90;;;;;;5059371;28;39212;-76
2023/10/31 04:41:32;;;;;;;3.78;0.90;;;10.80;99.90;;;;;;5063301;28;36787;-77
2023/10/31 04:43:58;;;;;;;5.43;0.60;;;10.80;99.90;;;;;;5060804;28;36065;-76
2023/10/31 04:46:27;;;;;;;3.55;0.60;;;10.70;99.90;;;;;;5057148;28;40204;-77
2023/10/31 04:48:53;;;;;;;4.73;0.67;;;10.70;99.90;;;;;;5057087;28;37903;-76
2023/10/31 04:51:20;;;;;;;4.93;0.70;;;10.70;99.90;;;;;;5062690;28;37931;-77
2023/10/31 04:53:46;;;;;;;1.63;0.57;;;10.70;99.90;;;;;;5060562;28;36777;-77
2023/10/31 04:56:14;;;;;;;0.95;0.82;;;10.70;99.90;;;;;;5063681;28;39292;-76
2023/10/31 04:58:41;;;;;;;2.50;0.47;;;10.70;99.90;;;;;;5060752;28;39195;-77
2023/10/31 05:01:14;;;;;;;2.40;0.60;;;10.70;99.90;;;;;;5064948;28;37416;-75
2023/10/31 05:03:40;;;;;;;3.53;0.60;;;10.80;99.90;;;;;;5061159;28;36117;-77
2023/10/31 05:06:06;;;;;;;3.90;0.47;;;10.80;99.90;;;;;;5060544;28;37932;-76
2023/10/31 05:08:32;;;;;;;4.93;1.20;;;10.80;99.90;;;;;;5065302;28;38250;-76
2023/10/31 05:10:59;;;;;;;3.15;0.43;;;10.70;99.90;;;;;;5065240;28;38021;-76
2023/10/31 05:13:25;;;;;;;6.07;0.82;;;10.80;99.90;;;;;;5060275;28;38500;-76
2023/10/31 05:15:51;;;;;;;6.18;0.60;;;10.80;99.90;;;;;;5064826;28;39766;-78
2023/10/31 05:18:18;;;;;;;3.03;0.70;;;10.80;99.90;;;;;;5057358;28;38528;-77
2023/10/31 05:20:44;;;;;;;3.38;0.40;;;10.80;99.90;;;;;;5064457;28;38137;-76
2023/10/31 05:23:10;;;;;;;1.60;0.40;;;10.80;99.90;;;;;;5067463;28;37821;-76
2023/10/31 05:25:37;;;;;;;6.43;0.63;;;10.80;99.90;;;;;;5067195;28;38802;-76
2023/10/31 05:28:04;;;;;;;4.53;0.40;;;10.80;99.90;;;;;;5070209;28;38893;-76
2023/10/31 05:30:30;;;;;;;3.17;0.60;;;10.80;99.90;;;;;;5060384;28;37538;-77
2023/10/31 05:32:56;;;;;;;2.53;0.50;;;10.80;99.90;;;;;;5070520;28;38119;-77
2023/10/31 05:35:22;;;;;;;2.67;0.50;;;10.90;99.90;;;;;;5066528;28;38638;-76
2023/10/31 05:37:48;;;;;;;1.92;0.40;;;10.90;99.90;;;;;;5070952;28;40554;-77
2023/10/31 05:40:16;;;;;;;1.55;0.30;;;10.80;99.90;;;;;;5063506;28;38537;-77
2023/10/31 05:42:42;;;;;;;4.20;0.50;;;10.80;99.90;;;;;;5071568;28;37148;-78
2023/10/31 05:45:08;;;;;;;0.98;0.60;;;10.80;99.90;;;;;;5060841;28;38996;-76
2023/10/31 05:47:34;;;;;;;4.40;0.60;;;10.80;99.90;;;;;;5061393;28;37946;-77
2023/10/31 05:50:01;;;;;;;3.35;0.50;;;10.80;99.90;;;;;;5063254;28;38018;-77
2023/10/31 05:52:31;;;;;;;0.80;0.40;;;10.80;99.90;;;;;;5059737;28;36137;-77
2023/10/31 05:54:58;;;;;;;2.30;0.60;;;10.80;99.90;;;;;;5054995;28;39029;-77
2023/10/31 05:57:24;;;;;;;4.70;0.88;;;10.80;99.90;;;;;;5066459;28;37810;-77
2023/10/31 05:59:53;;;;;;;1.65;0.60;;;10.80;99.90;;;;;;5055857;28;38373;-77
2023/10/31 06:02:19;;;;;;;1.95;1.10;;;10.80;99.90;;;;;;5061490;28;35951;-76
2023/10/31 06:04:45;;;;;;;3.03;0.95;;;10.70;99.90;;;;;;5061788;28;39730;-77
2023/10/31 06:07:12;;;;;;;2.72;0.73;;;10.70;99.90;;;;;;5062654;28;38605;-77
2023/10/31 06:09:38;;;;;;;2.47;1.23;;;10.60;99.90;;;;;;5060555;28;39001;-78
2023/10/31 06:12:05;;;;;;;6.03;1.65;;;10.60;99.90;;;;;;5054305;28;36352;-77
2023/10/31 06:14:32;;;;;;;6.60;1.58;;;10.60;99.90;;;;;;5054003;28;39582;-77
2023/10/31 06:16:59;;;;;;;2.25;1.60;;;10.50;99.90;;;;;;5056831;28;39047;-78
2023/10/31 06:19:25;;;;;;;3.13;1.45;;;10.50;99.90;;;;;;5052862;28;39745;-77
2023/10/31 06:21:51;;;;;;;3.57;1.60;;;10.50;99.90;;;;;;5051388;28;37036;-77
2023/10/31 06:24:17;;;;;;;4.15;1.90;;;10.50;99.90;;;;;;5057854;28;37489;-77
2023/10/31 06:26:43;;;;;;;4.22;1.90;;;10.50;99.90;;;;;;5059785;28;38688;-77
2023/10/31 06:29:09;;;;;;;5.93;2.27;;;10.40;99.90;;;;;;5060849;28;37586;-75
2023/10/31 06:31:36;;;;;;;3.42;2.10;;;10.40;99.90;;;;;;5059582;28;36981;-76
2023/10/31 06:34:02;;;;;;;3.65;2.00;;;10.50;99.90;;;;;;5065541;28;38344;-75
2023/10/31 06:36:28;;;;;;;5.82;2.85;;;10.50;99.90;;;;;;5057117;28;49041;-77
2023/10/31 06:38:54;;;;;;;5.93;2.00;;;10.40;99.90;;;;;;5060632;28;37327;-78
2023/10/31 06:41:20;;;;;;;4.10;2.50;;;10.40;99.90;;;;;;5056657;28;36985;-77
2023/10/31 06:43:47;;;;;;;5.20;2.10;;;10.50;99.90;;;;;;5061426;28;38473;-76
2023/10/31 06:46:15;;;;;;;5.57;2.50;;;10.50;99.90;;;;;;5066854;28;39063;-74
2023/10/31 06:48:41;;;;;;;5.15;2.60;;;10.40;99.90;;;;;;5056924;28;38788;-74
2023/10/31 06:51:07;;;;;;;8.20;2.28;;;10.50;99.90;;;;;;5055838;28;35746;-75
2023/10/31 06:53:33;;;;;;;5.68;2.15;;;10.50;99.90;;;;;;5058379;28;38613;-75
2023/10/31 06:55:59;;;;;;;3.87;2.60;;;10.50;99.90;;;;;;5065846;28;38508;-77
2023/10/31 06:58:25;;;;;;;3.37;2.40;;;10.50;99.90;;;;;;5061877;28;38580;-76
2023/10/31 07:00:51;;;;;;;6.00;2.58;;;10.50;99.90;;;;;;5065393;28;38250;-77
2023/10/31 07:03:17;;;;;;;5.27;2.90;;;10.60;99.90;;;;;;5066201;28;38669;-78
2023/10/31 07:05:44;;;;;;;5.22;2.60;;;10.50;99.90;;;;;;5066639;28;37978;-77
2023/10/31 07:08:10;;;;;;;11.32;4.93;;;10.60;99.90;;;;;;5060043;28;37625;-76
2023/10/31 07:10:36;;;;;;;10.93;6.65;;;10.70;99.90;;;;;;5062392;28;36052;-76
2023/10/31 07:13:03;;;;;;;15.27;10.38;;;10.80;99.90;;;;;;5048658;28;38681;-76
2023/10/31 07:15:29;;;;;;;16.63;11.20;;;10.90;99.90;;;;;;5055323;28;37692;-77
2023/10/31 07:17:55;;;;;;;15.85;11.75;;;11.00;99.90;;;;;;5059109;28;37332;-77
2023/10/31 07:20:21;;;;;;;16.77;14.25;;;11.10;99.90;;;;;;5059758;28;37039;-76
2023/10/31 07:22:47;;;;;;;17.27;14.82;;;11.20;99.90;;;;;;5056771;28;39590;-76
2023/10/31 07:25:13;;;;;;;25.55;16.50;;;11.30;99.90;;;;;;5058130;28;38427;-76
2023/10/31 07:27:39;;;;;;;21.42;16.48;;;11.30;99.90;;;;;;5057017;28;37927;-76
2023/10/31 07:30:06;;;;;;;18.60;16.27;;;11.30;99.90;;;;;;5059672;28;36311;-76
2023/10/31 07:32:32;;;;;;;18.92;15.75;;;11.40;99.90;;;;;;5057194;28;37663;-76
2023/10/31 07:34:58;;;;;;;23.20;17.90;;;11.40;99.90;;;;;;5059379;28;38144;-76
2023/10/31 07:37:25;;;;;;;18.65;16.20;;;11.40;99.90;;;;;;5064992;28;38716;-77
2023/10/31 07:39:51;;;;;;;18.50;16.60;;;11.50;99.90;;;;;;5064740;28;37326;-75
2023/10/31 07:42:17;;;;;;;26.52;18.30;;;11.60;99.90;;;;;;5060578;28;39449;-76
2023/10/31 07:44:43;;;;;;;20.38;17.70;;;11.60;99.90;;;;;;5065024;28;37905;-76
2023/10/31 07:47:10;;;;;;;23.88;18.10;;;11.60;99.90;;;;;;5064088;28;38896;-76
2023/10/31 07:49:36;;;;;;;24.50;16.88;;;11.70;99.90;;;;;;5060762;28;36464;-76
2023/10/31 07:52:02;;;;;;;23.90;16.60;;;11.70;99.90;;;;;;5056126;28;37546;-76
2023/10/31 07:54:28;;;;;;;24.25;17.08;;;11.70;99.90;;;;;;5060441;28;37982;-77
2023/10/31 07:56:54;;;;;;;20.27;15.20;;;11.70;99.90;;;;;;5063650;28;38334;-76
2023/10/31 07:59:20;;;;;;;18.52;14.63;;;11.70;99.90;;;;;;5064001;28;37245;-76
2023/10/31 08:01:48;;;;;;;22.67;15.82;;;11.70;99.90;;;;;;5063617;28;40105;-76
2023/10/31 08:04:16;;;;;;;19.80;14.77;;;11.70;99.90;;;;;;5059932;28;38795;-77
2023/10/31 08:06:42;;;;;;;20.15;14.48;;;11.70;99.90;;;;;;5061685;28;38454;-76
2023/10/31 08:09:10;;;;;;;21.38;14.95;;;11.70;99.90;;;;;;5063458;28;20057;-76
2023/10/31 08:11:36;;;;;;;18.92;14.13;;;11.80;99.90;;;;;;5066584;28;37745;-77
2023/10/31 08:14:02;;;;;;;24.40;13.77;;;11.70;99.90;;;;;;5066213;28;38298;-75
2023/10/31 08:16:28;;;;;;;16.15;13.95;;;11.70;99.90;;;;;;5065309;28;39436;-77
2023/10/31 08:18:54;;;;;;;15.75;11.73;;;11.80;99.90;;;;;;5067904;28;37499;-76
2023/10/31 08:21:20;;;;;;;21.88;12.63;;;11.90;99.90;;;;;;5061430;28;39767;-76
2023/10/31 08:23:46;;;;;;;18.13;10.32;;;12.00;99.90;;;;;;5058174;28;38852;-76
2023/10/31 08:26:13;;;;;;;22.27;8.68;;;12.10;99.90;;;;;;5057570;28;38709;-76
2023/10/31 08:28:40;;;;;;;15.63;8.40;;;12.10;99.90;;;;;;5066708;28;38233;-76
2023/10/31 08:31:07;;;;;;;14.10;6.10;;;12.20;99.90;;;;;;5061185;28;37690;-76
2023/10/31 08:33:33;;;;;;;13.35;6.20;;;12.10;99.90;;;;;;5065519;28;39729;-75
2023/10/31 08:36:00;;;;;;;13.25;5.30;;;12.10;99.90;;;;;;5056296;28;38506;-76
2023/10/31 08:38:28;;;;;;;15.40;6.47;;;12.00;99.90;;;;;;5065174;28;37219;-76
2023/10/31 08:40:54;;;;;;;10.35;4.47;;;12.00;99.90;;;;;;5069688;28;38689;-76
2023/10/31 08:43:20;;;;;;;14.55;4.90;;;12.00;99.90;;;;;;5060824;28;39139;-75
2023/10/31 08:45:46;;;;;;;11.38;4.95;;;12.10;99.90;;;;;;5055787;28;37314;-75
2023/10/31 08:48:13;;;;;;;8.75;4.80;;;12.20;99.90;;;;;;5065491;28;36250;-76
2023/10/31 08:50:39;;;;;;;13.27;5.38;;;12.40;99.90;;;;;;5064298;28;39713;-76
2023/10/31 08:53:05;;;;;;;12.15;4.13;;;12.70;99.90;;;;;;5053476;28;38768;-75
2023/10/31 08:55:31;;;;;;;10.57;3.72;;;12.80;99.90;;;;;;5063304;28;38290;-76
2023/10/31 08:57:57;;;;;;;10.00;4.35;;;12.80;99.90;;;;;;5082407;28;35541;-76
2023/10/31 09:00:23;;;;;;;7.68;4.00;;;12.80;99.90;;;;;;5062215;28;38229;-75
2023/10/31 09:02:50;;;;;;;14.55;5.15;;;12.70;99.90;;;;;;5061643;28;38572;-75
2023/10/31 09:05:16;;;;;;;12.25;4.25;;;12.60;99.90;;;;;;5059109;28;39089;-76
2023/10/31 09:07:42;;;;;;;16.88;4.88;;;12.70;99.90;;;;;;5070265;28;36930;-76
2023/10/31 09:10:08;;;;;;;16.58;3.63;;;12.60;99.90;;;;;;5069280;28;37953;-75
2023/10/31 09:12:35;;;;;;;10.45;3.88;;;12.60;99.90;;;;;;5068363;28;39522;-76
2023/10/31 09:15:01;;;;;;;15.35;4.45;;;12.50;99.90;;;;;;5067107;28;39457;-75
2023/10/31 09:17:27;;;;;;;8.55;3.55;;;12.70;99.90;;;;;;5068419;28;36123;-76
2023/10/31 09:19:54;;;;;;;10.13;4.05;;;12.70;99.90;;;;;;5067131;28;38719;-76
2023/10/31 09:22:20;;;;;;;12.98;3.80;;;12.80;99.90;;;;;;5066934;28;39265;-75
2023/10/31 09:24:46;;;;;;;9.95;3.55;;;12.90;99.90;;;;;;5064360;28;38199;-75
2023/10/31 09:27:12;;;;;;;9.25;3.53;;;13.00;99.90;;;;;;5066323;28;38138;-75
2023/10/31 09:29:38;;;;;;;9.43;3.88;;;13.00;99.90;;;;;;5065469;28;37500;-75
2023/10/31 09:32:06;;;;;;;10.73;3.80;;;13.10;99.90;;;;;;5059352;28;37337;-74
2023/10/31 09:34:32;;;;;;;13.25;3.60;;;13.10;99.90;;;;;;5066971;28;38697;-74
2023/10/31 09:36:58;;;;;;;7.30;3.80;;;13.10;99.90;;;;;;5068799;28;37299;-75
2023/10/31 09:39:24;;;;;;;7.32;3.42;;;13.10;99.90;;;;;;5065247;28;39000;-73
2023/10/31 09:41:50;;;;;;;6.95;4.10;;;13.40;99.90;;;;;;5060435;28;40311;-74
2023/10/31 09:44:17;;;;;;;9.38;4.80;;;13.50;99.90;;;;;;5064826;28;38306;-75
2023/10/31 09:46:43;;;;;;;10.32;5.38;;;13.60;99.90;;;;;;5058234;28;37641;-74
2023/10/31 09:49:11;;;;;;;10.68;5.43;;;13.80;99.90;;;;;;5058390;28;38330;-74
2023/10/31 09:51:38;;;;;;;10.75;4.70;;;13.90;99.90;;;;;;5066367;28;38593;-74
2023/10/31 09:54:06;;;;;;;12.27;4.65;;;13.90;99.90;;;;;;5061631;28;37923;-76
2023/10/31 09:56:34;;;;;;;10.60;5.97;;;14.00;99.90;;;;;;5067020;28;37007;-74
2023/10/31 09:59:02;;;;;;;12.50;6.80;;;14.10;99.90;;;;;;5068549;28;39448;-74
2023/10/31 10:01:28;;;;;;;9.88;6.97;;;13.90;99.90;;;;;;5067369;28;48647;-75
2023/10/31 10:03:56;;;;;;;11.05;6.70;;;13.90;99.90;;;;;;5059374;28;37243;-75
2023/10/31 10:06:23;;;;;;;15.65;10.15;;;14.00;99.90;;;;;;5069587;28;38042;-74
2023/10/31 10:08:50;;;;;;;20.90;14.80;;;13.80;99.90;;;;;;5068123;28;37475;-75
2023/10/31 10:11:16;;;;;;;23.00;18.25;;;13.70;99.90;;;;;;5066994;28;38608;-74
2023/10/31 10:13:42;;;;;;;32.20;23.00;;;13.60;99.90;;;;;;5065444;28;38320;-75
2023/10/31 10:16:09;;;;;;;29.88;22.80;;;13.40;99.90;;;;;;5072791;28;36260;-74
2023/10/31 10:18:39;;;;;;;32.22;24.08;;;13.30;99.90;;;;;;5066589;28;37335;-74
2023/10/31 10:21:06;;;;;;;30.63;24.90;;;13.00;99.90;;;;;;5067656;28;38561;-75
2023/10/31 10:23:33;;;;;;;36.05;26.27;;;12.90;99.90;;;;;;5067478;28;37419;-75
2023/10/31 10:26:00;;;;;;;39.58;27.30;;;12.90;99.90;;;;;;5068691;28;37244;-74
2023/10/31 10:28:29;;;;;;;43.65;28.58;;;12.90;99.90;;;;;;5066512;28;39179;-76
2023/10/31 10:30:55;;;;;;;42.33;28.48;;;12.90;99.90;;;;;;5069583;28;38432;-75
2023/10/31 10:33:22;;;;;;;43.90;26.70;;;13.00;99.90;;;;;;5069039;28;38421;-74
2023/10/31 10:35:48;;;;;;;39.35;27.63;;;13.00;99.90;;;;;;5066534;28;37525;-74
2023/10/31 10:38:16;;;;;;;34.88;25.15;;;13.10;99.90;;;;;;5064095;28;39391;-74
2023/10/31 10:40:44;;;;;;;28.95;21.45;;;13.10;99.90;;;;;;5063903;28;39472;-74
2023/10/31 10:43:20;;;;;;;36.97;23.25;;;13.10;99.90;;;;;;5063659;28;38542;-73
2023/10/31 10:45:49;;;;;;;34.92;23.52;;;13.10;99.90;;;;;;5060505;28;37643;-74
2023/10/31 10:48:18;;;;;;;29.42;22.48;;;13.00;99.90;;;;;;5060082;28;38563;-75
2023/10/31 10:50:50;;;;;;;30.05;21.95;;;13.00;99.90;;;;;;5061112;28;37913;-75
2023/10/31 10:53:19;;;;;;;31.05;22.00;;;13.20;99.90;;;;;;5056412;28;38624;-75
2023/10/31 10:55:48;;;;;;;25.38;20.23;;;13.30;99.90;;;;;;5057105;28;36871;-75
2023/10/31 10:58:58;;;;;;;24.50;18.73;;;13.30;99.90;;;;;;5063346;28;37645;-76
2023/10/31 11:01:25;;;;;;;30.23;20.33;;;13.30;99.90;;;;;;5057011;28;37507;-75
2023/10/31 11:03:52;;;;;;;24.67;18.65;;;13.50;99.90;;;;;;5061200;28;39215;-74
2023/10/31 11:06:19;;;;;;;27.65;18.48;;;13.50;99.90;;;;;;5063081;28;37522;-74
2023/10/31 11:08:46;;;;;;;24.98;19.73;;;13.80;99.90;;;;;;5063862;28;38065;-74
2023/10/31 11:11:15;;;;;;;25.60;18.10;;;13.70;99.90;;;;;;5064862;28;38704;-74
2023/10/31 11:13:44;;;;;;;26.92;18.95;;;13.60;99.90;;;;;;5056926;28;39197;-74
2023/10/31 11:16:19;;;;;;;26.63;19.40;;;13.40;99.90;;;;;;5054583;28;37238;-74
2023/10/31 11:18:46;;;;;;;28.33;19.05;;;13.30;99.90;;;;;;5057350;28;39308;-75
2023/10/31 11:21:12;;;;;;;24.85;17.77;;;13.30;99.90;;;;;;5055201;28;37644;-74
2023/10/31 11:23:39;;;;;;;23.30;18.50;;;13.30;99.90;;;;;;5069360;28;38225;-74
2023/10/31 11:26:08;;;;;;;25.25;17.95;;;13.30;99.90;;;;;;5067131;28;37333;-74
2023/10/31 11:28:36;;;;;;;21.23;17.17;;;13.30;99.90;;;;;;5064038;28;38902;-75
2023/10/31 11:31:02;;;;;;;22.50;18.25;;;13.30;99.90;;;;;;5061368;28;39219;-74
2023/10/31 11:33:29;;;;;;;21.52;17.27;;;13.10;99.90;;;;;;5068517;28;38721;-75
2023/10/31 11:36:04;;;;;;;28.42;18.70;;;13.10;99.90;;;;;;5060256;28;37558;-75
2023/10/31 11:38:38;;;;;;;26.48;19.65;;;13.00;99.90;;;;;;5065474;28;47330;-74
2023/10/31 11:41:06;;;;;;;26.95;20.08;;;13.10;99.90;;;;;;5064402;28;39650;-74
2023/10/31 11:43:52;;;;;;;22.85;19.50;;;13.00;99.90;;;;;;5062813;28;37459;-74
2023/10/31 11:46:24;;;;;;;21.95;18.52;;;13.00;99.90;;;;;;5059123;28;37975;-75
2023/10/31 11:48:52;;;;;;;24.50;18.08;;;13.10;99.90;;;;;;5064621;28;37915;-75
2023/10/31 11:51:19;;;;;;;23.73;17.73;;;13.10;99.90;;;;;;5054610;28;39552;-75
2023/10/31 11:53:45;;;;;;;23.10;18.23;;;13.30;99.90;;;;;;5065044;28;38799;-75
2023/10/31 11:56:11;;;;;;;19.75;17.23;;;13.20;99.90;;;;;;5066369;28;37200;-75
2023/10/31 11:58:38;;;;;;;22.30;17.73;;;13.20;99.90;;;;;;5065244;28;38531;-75
2023/10/31 12:01:06;;;;;;;21.40;18.58;;;13.20;99.90;;;;;;5066160;28;38938;-74
2023/10/31 12:03:39;;;;;;;25.52;20.58;;;13.30;99.90;;;;;;5056969;28;37842;-75
2023/10/31 12:06:06;;;;;;;24.13;20.13;;;13.10;99.90;;;;;;5063653;28;38975;-75
2023/10/31 12:08:35;;;;;;;23.27;20.38;;;13.00;99.90;;;;;;5065900;28;38690;-75
2023/10/31 12:11:07;;;;;;;24.00;20.10;;;12.90;99.90;;;;;;5062982;28;39410;-75
2023/10/31 12:13:35;;;;;;;24.58;20.25;;;12.90;99.90;;;;;;5064549;28;47349;-77
2023/10/31 12:16:01;;;;;;;22.20;18.98;;;12.80;99.90;;;;;;5067844;28;37974;-76
2023/10/31 12:18:28;;;;;;;22.45;19.60;;;12.90;99.90;;;;;;5062331;28;47384;-76
2023/10/31 12:20:55;;;;;;;23.50;18.27;;;12.90;99.90;;;;;;5062778;28;39537;-75
2023/10/31 12:23:21;;;;;;;23.73;20.25;;;12.90;99.90;;;;;;5059998;28;37245;-76
2023/10/31 12:25:48;;;;;;;24.60;20.95;;;13.00;99.90;;;;;;5064423;28;38057;-75
2023/10/31 12:28:18;;;;;;;26.83;19.98;;;13.00;99.90;;;;;;5064754;28;38562;-75
2023/10/31 12:30:48;;;;;;;21.75;19.45;;;12.90;99.90;;;;;;5061750;28;39110;-75
2023/10/31 12:33:16;;;;;;;28.50;20.00;;;12.90;99.90;;;;;;5065384;28;40111;-75
2023/10/31 12:35:46;;;;;;;26.75;19.90;;;12.90;99.90;;;;;;5063895;28;37424;-76